MV Evnia — 5BJG3 — position and weather

sailwx.info

Track history (hours):
 
Tides and Currents Weather Stations Pressure Air Temp Water Temp Dewpoint Dewpoint Depression Visibility Wind Speed Wind Dir Waves Ship Positions

MV Evnia

Last reported at 2015-Jan-03 19:28 UTC. Time now 2015-Jan-31 04:05 UTC.
Position S 28°55' E 032°37'.
Warning: this ship's position is 27 days out of date.

Length 190 m; draft 12.3 m.

Type: Cargo ship. MMSI: 209279000.

Date/timePositionNaut miles runAvg speedWind from/ knotsBaromVisibWave heightAir tempDewpointWater temp
2015-Jan-03 19:28S 28°55' E 032°37'36 8.9
2015-Jan-03 15:25S 29°21' E 032°08'7 7.9
2015-Jan-03 14:31S 29°25' E 032°02'7 7.6
2015-Jan-03 13:32S 29°30' E 031°55'7 7.6
2015-Jan-03 12:33S 29°34' E 031°48'9 9.2
2015-Jan-03 11:33S 29°39' E 031°39'1110.6
2015-Jan-03 10:33S 29°44' E 031°28'1110.6
2015-Jan-03 09:27S 29°49' E 031°16'5 5.9
2015-Jan-03 08:32S 29°52' E 031°11'0 0.3
2015-Jan-03 07:30S 29°52' E 031°11'0 0.4
2015-Jan-03 06:29S 29°52' E 031°12'2 2.6
2015-Jan-03 05:33S 29°50' E 031°14'4 2.0
2015-Jan-03 03:22S 29°46' E 031°15'0 0.0
2015-Jan-03 02:28S 29°46' E 031°15'0 0.0
2015-Jan-03 01:28S 29°46' E 031°15'0 0.0
2015-Jan-03 00:04S 29°46' E 031°15'0 0.0
2015-Jan-02 23:16S 29°46' E 031°15'0 0.0
2015-Jan-02 21:28S 29°46' E 031°15'0 0.0
2015-Jan-02 20:22S 29°46' E 031°15'1 1.2
2015-Jan-02 19:33S 29°47' E 031°15'11 9.6
2015-Jan-02 18:23S 29°58' E 031°11'8 9.9
2015-Jan-02 17:33S 30°05' E 031°06'96 8.4
2015-Jan-02 06:08S 31°25' E 030°04'  
Track history (hours):
 
Tides and Currents Weather Stations Pressure Air Temp Water Temp Dewpoint Dewpoint Depression Visibility Wind Speed Wind Dir Waves Ship Positions

MV Evnia

Last reported at 2015-Jan-03 19:28 UTC. Time now 2015-Jan-31 04:05 UTC.
Position S 28°55' E 032°37'.
Warning: this ship's position is 27 days out of date.

Length 190 m; draft 12.3 m.

Type: Cargo ship. MMSI: 209279000.

Date/timePositionNaut miles runAvg speedWind from/ knotsBaromVisibWave heightAir tempDewpointWater temp
2015-Jan-03 19:28S 28°55' E 032°37'36 8.9
2015-Jan-03 15:25S 29°21' E 032°08'7 7.9
2015-Jan-03 14:31S 29°25' E 032°02'7 7.6
2015-Jan-03 13:32S 29°30' E 031°55'7 7.6
2015-Jan-03 12:33S 29°34' E 031°48'9 9.2
2015-Jan-03 11:33S 29°39' E 031°39'1110.6
2015-Jan-03 10:33S 29°44' E 031°28'1110.6
2015-Jan-03 09:27S 29°49' E 031°16'5 5.9
2015-Jan-03 08:32S 29°52' E 031°11'0 0.3
2015-Jan-03 07:30S 29°52' E 031°11'0 0.4
2015-Jan-03 06:29S 29°52' E 031°12'2 2.6
2015-Jan-03 05:33S 29°50' E 031°14'4 2.0
2015-Jan-03 03:22S 29°46' E 031°15'0 0.0
2015-Jan-03 02:28S 29°46' E 031°15'0 0.0
2015-Jan-03 01:28S 29°46' E 031°15'0 0.0
2015-Jan-03 00:04S 29°46' E 031°15'0 0.0
2015-Jan-02 23:16S 29°46' E 031°15'0 0.0
2015-Jan-02 21:28S 29°46' E 031°15'0 0.0
2015-Jan-02 20:22S 29°46' E 031°15'1 1.2
2015-Jan-02 19:33S 29°47' E 031°15'11 9.6
2015-Jan-02 18:23S 29°58' E 031°11'8 9.9
2015-Jan-02 17:33S 30°05' E 031°06'96 8.4
2015-Jan-02 06:08S 31°25' E 030°04'  

Dump ship's entire track history